Terminal Aerodrome Forecast
Issued by NWS Grand Forks, ND

Home | Current Version | Previous Version | Graphics & Text | Print | Product List | Glossary On
Versions: 1 2 3 4 5 6 7 8 9 10 11 12 13 14 15 16 17 18 19 20 21 22 23 24 25 26 27 28
867
FTUS43 KFGF 151317 AAB
TAFGFK
TAF AMD
KGFK 151317Z 1513/1612 18003KT 5SM -SN OVC035
      TEMPO 1513/1515 2SM -SN OVC025
     FM151500 15007KT 3SM -SN OVC025
      TEMPO 1515/1518 1SM -SN OVC007
     FM151800 15009KT P6SM OVC020
     FM152100 14008KT 2SM -SN OVC020
     FM160600 11007KT P6SM OVC015=

USA.gov is the U.S. government's official web portal to all federal, state and local government web resources and services.